sensor_id;sensor_type;location;lat;lon;timestamp;temperature;humidity
66934;DHT22;53846;51.984;5.890;2022-08-20T00:00:34;23.20;73.10
66934;DHT22;53846;51.984;5.890;2022-08-20T00:03:07;23.40;73.30
66934;DHT22;53846;51.984;5.890;2022-08-20T00:05:41;23.40;73.20
66934;DHT22;53846;51.984;5.890;2022-08-20T00:08:11;23.50;73.40
66934;DHT22;53846;51.984;5.890;2022-08-20T00:10:42;23.30;73.20
66934;DHT22;53846;51.984;5.890;2022-08-20T00:13:14;23.40;73.30
66934;DHT22;53846;51.984;5.890;2022-08-20T00:15:47;23.30;73.10
66934;DHT22;53846;51.984;5.890;2022-08-20T00:18:16;23.50;73.20
66934;DHT22;53846;51.984;5.890;2022-08-20T00:20:48;23.40;73.10
66934;DHT22;53846;51.984;5.890;2022-08-20T00:23:18;23.60;73.20
66934;DHT22;53846;51.984;5.890;2022-08-20T00:25:47;23.50;74.80
66934;DHT22;53846;51.984;5.890;2022-08-20T00:28:17;23.40;74.30
66934;DHT22;53846;51.984;5.890;2022-08-20T00:30:49;23.50;73.70
66934;DHT22;53846;51.984;5.890;2022-08-20T00:33:20;23.70;73.40
66934;DHT22;53846;51.984;5.890;2022-08-20T00:35:52;23.50;73.00
66934;DHT22;53846;51.984;5.890;2022-08-20T00:38:22;23.50;72.90
66934;DHT22;53846;51.984;5.890;2022-08-20T00:40:56;23.60;72.80
66934;DHT22;53846;51.984;5.890;2022-08-20T00:43:31;23.40;72.80
66934;DHT22;53846;51.984;5.890;2022-08-20T00:46:07;23.40;73.10
66934;DHT22;53846;51.984;5.890;2022-08-20T00:48:38;23.60;73.20
66934;DHT22;53846;51.984;5.890;2022-08-20T00:51:10;23.20;73.00
66934;DHT22;53846;51.984;5.890;2022-08-20T00:53:40;23.10;73.10
66934;DHT22;53846;51.984;5.890;2022-08-20T00:56:10;23.30;73.30
66934;DHT22;53846;51.984;5.890;2022-08-20T00:58:41;23.30;73.30
66934;DHT22;53846;51.984;5.890;2022-08-20T01:01:14;23.30;73.40
66934;DHT22;53846;51.984;5.890;2022-08-20T01:03:44;23.30;73.60
66934;DHT22;53846;51.984;5.890;2022-08-20T01:06:13;23.30;73.70
66934;DHT22;53846;51.984;5.890;2022-08-20T01:08:43;23.20;73.60
66934;DHT22;53846;51.984;5.890;2022-08-20T01:11:12;23.40;73.90
66934;DHT22;53846;51.984;5.890;2022-08-20T01:13:44;23.10;73.70
66934;DHT22;53846;51.984;5.890;2022-08-20T01:16:20;23.20;73.80
66934;DHT22;53846;51.984;5.890;2022-08-20T01:18:50;23.00;73.80
66934;DHT22;53846;51.984;5.890;2022-08-20T01:21:20;23.30;74.20
66934;DHT22;53846;51.984;5.890;2022-08-20T01:23:57;23.00;74.20
66934;DHT22;53846;51.984;5.890;2022-08-20T01:26:33;23.10;74.50
66934;DHT22;53846;51.984;5.890;2022-08-20T01:29:06;22.90;74.40
66934;DHT22;53846;51.984;5.890;2022-08-20T01:31:38;23.20;74.80
66934;DHT22;53846;51.984;5.890;2022-08-20T01:34:11;23.10;74.70
66934;DHT22;53846;51.984;5.890;2022-08-20T01:36:43;23.30;74.60
66934;DHT22;53846;51.984;5.890;2022-08-20T01:39:15;23.00;74.20
66934;DHT22;53846;51.984;5.890;2022-08-20T01:41:59;22.90;74.00
66934;DHT22;53846;51.984;5.890;2022-08-20T01:44:30;23.00;74.00
66934;DHT22;53846;51.984;5.890;2022-08-20T01:47:09;23.10;73.90
66934;DHT22;53846;51.984;5.890;2022-08-20T01:49:41;23.10;73.90
66934;DHT22;53846;51.984;5.890;2022-08-20T01:52:21;23.40;74.10
66934;DHT22;53846;51.984;5.890;2022-08-20T01:54:52;23.10;73.80
66934;DHT22;53846;51.984;5.890;2022-08-20T01:57:24;23.20;73.60
66934;DHT22;53846;51.984;5.890;2022-08-20T01:59:54;23.10;73.40
66934;DHT22;53846;51.984;5.890;2022-08-20T02:02:25;23.10;73.40
66934;DHT22;53846;51.984;5.890;2022-08-20T02:04:54;23.10;73.50
66934;DHT22;53846;51.984;5.890;2022-08-20T02:07:23;23.10;73.50
66934;DHT22;53846;51.984;5.890;2022-08-20T02:09:53;23.40;73.50
66934;DHT22;53846;51.984;5.890;2022-08-20T02:12:25;23.10;73.40
66934;DHT22;53846;51.984;5.890;2022-08-20T02:14:54;23.30;73.50
66934;DHT22;53846;51.984;5.890;2022-08-20T02:17:25;23.00;73.20
66934;DHT22;53846;51.984;5.890;2022-08-20T02:19:57;23.10;73.40
66934;DHT22;53846;51.984;5.890;2022-08-20T02:22:33;23.10;73.40
66934;DHT22;53846;51.984;5.890;2022-08-20T02:25:04;23.10;73.60
66934;DHT22;53846;51.984;5.890;2022-08-20T02:27:39;22.80;73.40
66934;DHT22;53846;51.984;5.890;2022-08-20T02:30:12;23.00;73.60
66934;DHT22;53846;51.984;5.890;2022-08-20T02:32:41;23.00;73.60
66934;DHT22;53846;51.984;5.890;2022-08-20T02:35:11;23.00;73.50
66934;DHT22;53846;51.984;5.890;2022-08-20T02:37:43;23.00;73.50
66934;DHT22;53846;51.984;5.890;2022-08-20T02:40:19;23.00;73.50
66934;DHT22;53846;51.984;5.890;2022-08-20T02:42:51;23.00;73.50
66934;DHT22;53846;51.984;5.890;2022-08-20T02:45:20;23.00;73.50
66934;DHT22;53846;51.984;5.890;2022-08-20T02:47:49;23.10;73.60
66934;DHT22;53846;51.984;5.890;2022-08-20T02:50:23;23.00;73.60
66934;DHT22;53846;51.984;5.890;2022-08-20T02:52:53;23.00;73.70
66934;DHT22;53846;51.984;5.890;2022-08-20T02:55:23;22.90;73.70
66934;DHT22;53846;51.984;5.890;2022-08-20T02:57:56;22.90;73.70
66934;DHT22;53846;51.984;5.890;2022-08-20T03:00:27;22.90;73.70
66934;DHT22;53846;51.984;5.890;2022-08-20T03:02:57;22.80;73.70
66934;DHT22;53846;51.984;5.890;2022-08-20T03:05:26;22.90;73.70
66934;DHT22;53846;51.984;5.890;2022-08-20T03:07:55;22.80;73.80
66934;DHT22;53846;51.984;5.890;2022-08-20T03:10:33;22.80;73.80
66934;DHT22;53846;51.984;5.890;2022-08-20T03:13:06;22.80;73.90
66934;DHT22;53846;51.984;5.890;2022-08-20T03:15:39;22.80;73.70
66934;DHT22;53846;51.984;5.890;2022-08-20T03:18:09;22.90;73.70
66934;DHT22;53846;51.984;5.890;2022-08-20T03:20:39;22.90;73.70
66934;DHT22;53846;51.984;5.890;2022-08-20T03:23:08;22.90;73.70
66934;DHT22;53846;51.984;5.890;2022-08-20T03:25:37;22.90;73.80
66934;DHT22;53846;51.984;5.890;2022-08-20T03:28:10;22.90;73.80
66934;DHT22;53846;51.984;5.890;2022-08-20T03:30:39;22.90;73.90
66934;DHT22;53846;51.984;5.890;2022-08-20T03:33:09;22.60;73.60
66934;DHT22;53846;51.984;5.890;2022-08-20T03:35:38;23.20;73.90
66934;DHT22;53846;51.984;5.890;2022-08-20T03:38:08;22.80;73.70
66934;DHT22;53846;51.984;5.890;2022-08-20T03:40:39;22.70;73.80
66934;DHT22;53846;51.984;5.890;2022-08-20T03:43:11;22.70;73.90
66934;DHT22;53846;51.984;5.890;2022-08-20T03:45:42;22.70;74.00
66934;DHT22;53846;51.984;5.890;2022-08-20T03:48:14;22.70;74.10
66934;DHT22;53846;51.984;5.890;2022-08-20T03:50:44;22.50;74.00
66934;DHT22;53846;51.984;5.890;2022-08-20T03:53:14;22.70;74.30
66934;DHT22;53846;51.984;5.890;2022-08-20T03:55:45;22.70;74.40
66934;DHT22;53846;51.984;5.890;2022-08-20T03:58:17;22.60;74.40
66934;DHT22;53846;51.984;5.890;2022-08-20T04:00:49;22.60;75.30
66934;DHT22;53846;51.984;5.890;2022-08-20T04:03:19;22.60;74.80
66934;DHT22;53846;51.984;5.890;2022-08-20T04:05:49;22.60;74.90
66934;DHT22;53846;51.984;5.890;2022-08-20T04:08:20;22.50;75.60
66934;DHT22;53846;51.984;5.890;2022-08-20T04:10:50;22.80;75.60
66934;DHT22;53846;51.984;5.890;2022-08-20T04:13:22;22.50;75.20
66934;DHT22;53846;51.984;5.890;2022-08-20T04:15:51;22.80;75.00
66934;DHT22;53846;51.984;5.890;2022-08-20T04:18:22;22.60;74.70
66934;DHT22;53846;51.984;5.890;2022-08-20T04:20:52;22.60;74.90
66934;DHT22;53846;51.984;5.890;2022-08-20T04:23:21;22.50;74.70
66934;DHT22;53846;51.984;5.890;2022-08-20T04:25:50;22.60;74.80
66934;DHT22;53846;51.984;5.890;2022-08-20T04:28:23;22.50;74.60
66934;DHT22;53846;51.984;5.890;2022-08-20T04:30:55;22.50;74.70
66934;DHT22;53846;51.984;5.890;2022-08-20T04:33:25;22.70;74.90
66934;DHT22;53846;51.984;5.890;2022-08-20T04:35:57;22.40;74.80
66934;DHT22;53846;51.984;5.890;2022-08-20T04:38:28;22.60;75.00
66934;DHT22;53846;51.984;5.890;2022-08-20T04:40:58;22.50;74.90
66934;DHT22;53846;51.984;5.890;2022-08-20T04:43:31;22.40;74.80
66934;DHT22;53846;51.984;5.890;2022-08-20T04:46:03;22.40;74.80
66934;DHT22;53846;51.984;5.890;2022-08-20T04:48:34;22.40;75.60
66934;DHT22;53846;51.984;5.890;2022-08-20T04:51:05;22.30;75.80
66934;DHT22;53846;51.984;5.890;2022-08-20T04:53:34;22.20;75.80
66934;DHT22;53846;51.984;5.890;2022-08-20T04:56:04;22.30;75.80
66934;DHT22;53846;51.984;5.890;2022-08-20T04:58:38;22.20;76.20
66934;DHT22;53846;51.984;5.890;2022-08-20T05:01:12;22.20;77.20
66934;DHT22;53846;51.984;5.890;2022-08-20T05:03:41;22.00;75.70
66934;DHT22;53846;51.984;5.890;2022-08-20T05:06:11;22.00;75.60
66934;DHT22;53846;51.984;5.890;2022-08-20T05:08:41;21.90;75.80
66934;DHT22;53846;51.984;5.890;2022-08-20T05:11:10;21.80;75.80
66934;DHT22;53846;51.984;5.890;2022-08-20T05:13:42;21.80;75.70
66934;DHT22;53846;51.984;5.890;2022-08-20T05:16:11;21.80;76.30
66934;DHT22;53846;51.984;5.890;2022-08-20T05:18:43;21.60;75.40
66934;DHT22;53846;51.984;5.890;2022-08-20T05:21:12;21.80;75.30
66934;DHT22;53846;51.984;5.890;2022-08-20T05:23:41;22.10;75.40
66934;DHT22;53846;51.984;5.890;2022-08-20T05:26:10;22.10;75.30
66934;DHT22;53846;51.984;5.890;2022-08-20T05:28:43;21.80;75.20
66934;DHT22;53846;51.984;5.890;2022-08-20T05:31:14;21.90;75.30
66934;DHT22;53846;51.984;5.890;2022-08-20T05:33:43;22.10;75.30
66934;DHT22;53846;51.984;5.890;2022-08-20T05:36:16;21.80;74.90
66934;DHT22;53846;51.984;5.890;2022-08-20T05:38:46;21.90;74.90
66934;DHT22;53846;51.984;5.890;2022-08-20T05:41:15;22.00;74.90
66934;DHT22;53846;51.984;5.890;2022-08-20T05:43:47;22.00;74.90
66934;DHT22;53846;51.984;5.890;2022-08-20T05:46:16;21.80;74.90
66934;DHT22;53846;51.984;5.890;2022-08-20T05:48:45;22.00;75.10
66934;DHT22;53846;51.984;5.890;2022-08-20T05:51:14;21.90;75.10
66934;DHT22;53846;51.984;5.890;2022-08-20T05:53:43;22.00;75.20
66934;DHT22;53846;51.984;5.890;2022-08-20T05:56:12;22.00;75.20
66934;DHT22;53846;51.984;5.890;2022-08-20T05:58:41;21.90;75.10
66934;DHT22;53846;51.984;5.890;2022-08-20T06:01:13;22.10;75.10
66934;DHT22;53846;51.984;5.890;2022-08-20T06:03:42;22.00;75.00
66934;DHT22;53846;51.984;5.890;2022-08-20T06:06:23;22.30;75.20
66934;DHT22;53846;51.984;5.890;2022-08-20T06:08:53;22.00;75.10
66934;DHT22;53846;51.984;5.890;2022-08-20T06:11:22;22.30;75.10
66934;DHT22;53846;51.984;5.890;2022-08-20T06:13:52;22.10;75.00
66934;DHT22;53846;51.984;5.890;2022-08-20T06:16:24;22.20;75.00
66934;DHT22;53846;51.984;5.890;2022-08-20T06:18:53;21.90;74.80
66934;DHT22;53846;51.984;5.890;2022-08-20T06:21:22;22.20;75.00
66934;DHT22;53846;51.984;5.890;2022-08-20T06:23:51;22.10;74.90
66934;DHT22;53846;51.984;5.890;2022-08-20T06:26:20;22.20;75.10
66934;DHT22;53846;51.984;5.890;2022-08-20T06:28:49;21.90;75.00
66934;DHT22;53846;51.984;5.890;2022-08-20T06:31:18;22.30;75.20
66934;DHT22;53846;51.984;5.890;2022-08-20T06:33:50;22.40;75.30
66934;DHT22;53846;51.984;5.890;2022-08-20T06:36:19;22.20;75.70
66934;DHT22;53846;51.984;5.890;2022-08-20T06:38:48;22.30;75.10
66934;DHT22;53846;51.984;5.890;2022-08-20T06:41:19;22.30;76.00
66934;DHT22;53846;51.984;5.890;2022-08-20T06:43:48;22.40;75.80
66934;DHT22;53846;51.984;5.890;2022-08-20T06:46:19;22.30;75.60
66934;DHT22;53846;51.984;5.890;2022-08-20T06:48:51;22.30;75.60
66934;DHT22;53846;51.984;5.890;2022-08-20T06:51:20;22.40;75.80
66934;DHT22;53846;51.984;5.890;2022-08-20T06:53:49;22.40;75.70
66934;DHT22;53846;51.984;5.890;2022-08-20T06:56:18;22.50;75.70
66934;DHT22;53846;51.984;5.890;2022-08-20T06:58:48;22.50;75.60
66934;DHT22;53846;51.984;5.890;2022-08-20T07:01:17;22.30;75.20
66934;DHT22;53846;51.984;5.890;2022-08-20T07:03:47;22.40;75.10
66934;DHT22;53846;51.984;5.890;2022-08-20T07:06:19;22.60;75.00
66934;DHT22;53846;51.984;5.890;2022-08-20T07:08:50;22.60;75.00
66934;DHT22;53846;51.984;5.890;2022-08-20T07:11:19;22.60;75.00
66934;DHT22;53846;51.984;5.890;2022-08-20T07:13:48;22.60;75.00
66934;DHT22;53846;51.984;5.890;2022-08-20T07:16:17;22.60;75.10
66934;DHT22;53846;51.984;5.890;2022-08-20T07:18:46;22.40;75.20
66934;DHT22;53846;51.984;5.890;2022-08-20T07:21:15;22.70;75.60
66934;DHT22;53846;51.984;5.890;2022-08-20T07:23:47;22.60;75.70
66934;DHT22;53846;51.984;5.890;2022-08-20T07:26:18;22.60;76.00
66934;DHT22;53846;51.984;5.890;2022-08-20T07:28:48;22.70;75.80
66934;DHT22;53846;51.984;5.890;2022-08-20T07:31:17;22.60;72.90
66934;DHT22;53846;51.984;5.890;2022-08-20T07:34:01;22.70;72.20
66934;DHT22;53846;51.984;5.890;2022-08-20T07:36:30;23.10;73.00
66934;DHT22;53846;51.984;5.890;2022-08-20T07:39:02;23.00;71.00
66934;DHT22;53846;51.984;5.890;2022-08-20T07:41:32;22.80;70.80
66934;DHT22;53846;51.984;5.890;2022-08-20T07:44:01;23.00;71.60
66934;DHT22;53846;51.984;5.890;2022-08-20T07:46:31;23.00;71.60
66934;DHT22;53846;51.984;5.890;2022-08-20T07:49:00;23.00;70.60
66934;DHT22;53846;51.984;5.890;2022-08-20T07:51:30;22.90;71.40
66934;DHT22;53846;51.984;5.890;2022-08-20T07:54:02;23.10;72.00
66934;DHT22;53846;51.984;5.890;2022-08-20T07:56:31;23.20;72.40
66934;DHT22;53846;51.984;5.890;2022-08-20T07:59:00;23.20;72.40
66934;DHT22;53846;51.984;5.890;2022-08-20T08:01:30;23.20;72.20
66934;DHT22;53846;51.984;5.890;2022-08-20T08:04:00;23.20;68.80
66934;DHT22;53846;51.984;5.890;2022-08-20T08:06:30;23.20;68.10
66934;DHT22;53846;51.984;5.890;2022-08-20T08:09:05;23.20;68.00
66934;DHT22;53846;51.984;5.890;2022-08-20T08:11:36;23.40;68.80
66934;DHT22;53846;51.984;5.890;2022-08-20T08:14:07;23.40;68.60
66934;DHT22;53846;51.984;5.890;2022-08-20T08:16:37;23.30;67.60
66934;DHT22;53846;51.984;5.890;2022-08-20T08:19:11;23.50;66.90
66934;DHT22;53846;51.984;5.890;2022-08-20T08:21:42;23.60;66.80
66934;DHT22;53846;51.984;5.890;2022-08-20T08:24:14;23.70;67.00
66934;DHT22;53846;51.984;5.890;2022-08-20T08:26:43;23.60;66.30
66934;DHT22;53846;51.984;5.890;2022-08-20T08:29:15;23.80;64.70
66934;DHT22;53846;51.984;5.890;2022-08-20T08:31:44;23.80;64.90
66934;DHT22;53846;51.984;5.890;2022-08-20T08:34:13;23.90;65.60
66934;DHT22;53846;51.984;5.890;2022-08-20T08:36:42;23.90;64.20
66934;DHT22;53846;51.984;5.890;2022-08-20T08:39:14;24.00;65.30
66934;DHT22;53846;51.984;5.890;2022-08-20T08:41:47;24.00;64.30
66934;DHT22;53846;51.984;5.890;2022-08-20T08:44:18;24.00;63.40
66934;DHT22;53846;51.984;5.890;2022-08-20T08:46:51;23.90;62.80
66934;DHT22;53846;51.984;5.890;2022-08-20T08:49:24;24.20;62.20
66934;DHT22;53846;51.984;5.890;2022-08-20T08:51:57;24.70;62.10
66934;DHT22;53846;51.984;5.890;2022-08-20T08:54:30;24.50;62.70
66934;DHT22;53846;51.984;5.890;2022-08-20T08:57:01;24.60;61.30
66934;DHT22;53846;51.984;5.890;2022-08-20T08:59:33;24.60;61.70
66934;DHT22;53846;51.984;5.890;2022-08-20T09:02:02;24.80;61.50
66934;DHT22;53846;51.984;5.890;2022-08-20T09:04:33;24.80;59.90
66934;DHT22;53846;51.984;5.890;2022-08-20T09:07:06;25.00;60.70
66934;DHT22;53846;51.984;5.890;2022-08-20T09:09:42;25.20;59.70
66934;DHT22;53846;51.984;5.890;2022-08-20T09:12:15;25.20;58.60
66934;DHT22;53846;51.984;5.890;2022-08-20T09:14:46;25.30;59.30
66934;DHT22;53846;51.984;5.890;2022-08-20T09:17:16;25.20;58.40
66934;DHT22;53846;51.984;5.890;2022-08-20T09:19:45;25.40;58.40
66934;DHT22;53846;51.984;5.890;2022-08-20T09:22:18;25.60;58.30
66934;DHT22;53846;51.984;5.890;2022-08-20T09:24:50;25.50;57.70
66934;DHT22;53846;51.984;5.890;2022-08-20T09:27:19;25.80;56.70
66934;DHT22;53846;51.984;5.890;2022-08-20T09:29:48;25.60;57.80
66934;DHT22;53846;51.984;5.890;2022-08-20T09:32:21;25.90;54.50
66934;DHT22;53846;51.984;5.890;2022-08-20T09:34:52;25.80;54.90
66934;DHT22;53846;51.984;5.890;2022-08-20T09:37:24;25.80;53.70
66934;DHT22;53846;51.984;5.890;2022-08-20T09:39:56;25.80;54.80
66934;DHT22;53846;51.984;5.890;2022-08-20T09:42:27;26.00;55.80
66934;DHT22;53846;51.984;5.890;2022-08-20T09:44:57;25.80;54.40
66934;DHT22;53846;51.984;5.890;2022-08-20T09:47:27;26.00;52.20
66934;DHT22;53846;51.984;5.890;2022-08-20T09:49:56;26.00;50.90
66934;DHT22;53846;51.984;5.890;2022-08-20T09:52:27;25.60;52.40
66934;DHT22;53846;51.984;5.890;2022-08-20T09:55:03;25.50;52.90
66934;DHT22;53846;51.984;5.890;2022-08-20T09:57:33;25.30;53.90
66934;DHT22;53846;51.984;5.890;2022-08-20T10:00:06;25.50;54.10
66934;DHT22;53846;51.984;5.890;2022-08-20T10:02:43;25.30;52.70
66934;DHT22;53846;51.984;5.890;2022-08-20T10:05:12;25.40;53.40
66934;DHT22;53846;51.984;5.890;2022-08-20T10:07:42;25.80;54.00
66934;DHT22;53846;51.984;5.890;2022-08-20T10:10:14;25.90;50.30
66934;DHT22;53846;51.984;5.890;2022-08-20T10:12:43;26.00;50.60
66934;DHT22;53846;51.984;5.890;2022-08-20T10:15:13;26.00;50.20
66934;DHT22;53846;51.984;5.890;2022-08-20T10:17:42;26.30;51.00
66934;DHT22;53846;51.984;5.890;2022-08-20T10:20:12;25.80;50.60
66934;DHT22;53846;51.984;5.890;2022-08-20T10:22:43;26.20;50.50
66934;DHT22;53846;51.984;5.890;2022-08-20T10:25:15;26.10;51.00
66934;DHT22;53846;51.984;5.890;2022-08-20T10:27:44;26.20;49.70
66934;DHT22;53846;51.984;5.890;2022-08-20T10:30:13;26.30;49.50
66934;DHT22;53846;51.984;5.890;2022-08-20T10:32:42;26.20;49.00
66934;DHT22;53846;51.984;5.890;2022-08-20T10:35:11;26.10;49.20
66934;DHT22;53846;51.984;5.890;2022-08-20T10:37:40;26.20;49.40
66934;DHT22;53846;51.984;5.890;2022-08-20T10:40:10;26.20;49.80
66934;DHT22;53846;51.984;5.890;2022-08-20T10:42:43;26.00;49.90
66934;DHT22;53846;51.984;5.890;2022-08-20T10:45:14;26.00;51.40
66934;DHT22;53846;51.984;5.890;2022-08-20T10:47:44;26.10;49.90
66934;DHT22;53846;51.984;5.890;2022-08-20T10:50:15;26.10;49.30
66934;DHT22;53846;51.984;5.890;2022-08-20T10:52:45;26.00;48.60
66934;DHT22;53846;51.984;5.890;2022-08-20T10:55:14;26.10;48.30
66934;DHT22;53846;51.984;5.890;2022-08-20T10:57:46;26.60;48.30
66934;DHT22;53846;51.984;5.890;2022-08-20T11:00:16;26.60;48.80
66934;DHT22;53846;51.984;5.890;2022-08-20T11:02:45;26.50;47.10
66934;DHT22;53846;51.984;5.890;2022-08-20T11:05:15;26.60;46.90
66934;DHT22;53846;51.984;5.890;2022-08-20T11:07:44;26.70;46.40
66934;DHT22;53846;51.984;5.890;2022-08-20T11:10:13;26.70;46.10
66934;DHT22;53846;51.984;5.890;2022-08-20T11:12:45;26.50;46.30
66934;DHT22;53846;51.984;5.890;2022-08-20T11:15:14;26.80;44.80
66934;DHT22;53846;51.984;5.890;2022-08-20T11:17:44;26.80;44.40
66934;DHT22;53846;51.984;5.890;2022-08-20T11:20:16;26.60;46.40
66934;DHT22;53846;51.984;5.890;2022-08-20T11:22:46;26.60;47.00
66934;DHT22;53846;51.984;5.890;2022-08-20T11:25:15;26.80;46.90
66934;DHT22;53846;51.984;5.890;2022-08-20T11:27:49;26.90;47.10
66934;DHT22;53846;51.984;5.890;2022-08-20T11:30:20;26.90;47.40
66934;DHT22;53846;51.984;5.890;2022-08-20T11:32:49;27.00;47.30
66934;DHT22;53846;51.984;5.890;2022-08-20T11:35:19;27.10;45.10
66934;DHT22;53846;51.984;5.890;2022-08-20T11:37:49;27.30;45.40
66934;DHT22;53846;51.984;5.890;2022-08-20T11:40:19;27.20;45.70
66934;DHT22;53846;51.984;5.890;2022-08-20T11:42:51;27.20;44.00
66934;DHT22;53846;51.984;5.890;2022-08-20T11:45:21;27.20;45.00
66934;DHT22;53846;51.984;5.890;2022-08-20T11:47:50;27.10;44.90
66934;DHT22;53846;51.984;5.890;2022-08-20T11:50:20;27.00;44.40
66934;DHT22;53846;51.984;5.890;2022-08-20T11:52:49;27.10;45.10
66934;DHT22;53846;51.984;5.890;2022-08-20T11:55:18;27.20;44.20
66934;DHT22;53846;51.984;5.890;2022-08-20T11:57:47;27.30;43.10
66934;DHT22;53846;51.984;5.890;2022-08-20T12:00:21;27.50;44.00
66934;DHT22;53846;51.984;5.890;2022-08-20T12:02:50;27.60;42.90
66934;DHT22;53846;51.984;5.890;2022-08-20T12:05:19;27.70;42.60
66934;DHT22;53846;51.984;5.890;2022-08-20T12:07:48;27.80;41.70
66934;DHT22;53846;51.984;5.890;2022-08-20T12:10:17;27.90;42.00
66934;DHT22;53846;51.984;5.890;2022-08-20T12:12:48;28.20;42.40
66934;DHT22;53846;51.984;5.890;2022-08-20T12:15:20;28.40;41.00
66934;DHT22;53846;51.984;5.890;2022-08-20T12:17:49;28.30;41.40
66934;DHT22;53846;51.984;5.890;2022-08-20T12:20:18;28.20;40.70
66934;DHT22;53846;51.984;5.890;2022-08-20T12:22:47;28.30;41.00
66934;DHT22;53846;51.984;5.890;2022-08-20T12:25:17;28.30;40.40
66934;DHT22;53846;51.984;5.890;2022-08-20T12:27:46;28.10;40.90
66934;DHT22;53846;51.984;5.890;2022-08-20T12:30:20;28.30;39.10
66934;DHT22;53846;51.984;5.890;2022-08-20T12:32:49;28.20;38.30
66934;DHT22;53846;51.984;5.890;2022-08-20T12:35:18;28.40;39.70
66934;DHT22;53846;51.984;5.890;2022-08-20T12:37:48;28.30;39.60
66934;DHT22;53846;51.984;5.890;2022-08-20T12:40:20;28.10;38.70
66934;DHT22;53846;51.984;5.890;2022-08-20T12:42:49;28.10;39.70
66934;DHT22;53846;51.984;5.890;2022-08-20T12:45:21;27.90;40.20
66934;DHT22;53846;51.984;5.890;2022-08-20T12:47:50;27.70;40.60
66934;DHT22;53846;51.984;5.890;2022-08-20T12:50:21;27.70;40.90
66934;DHT22;53846;51.984;5.890;2022-08-20T12:52:51;27.50;40.20
66934;DHT22;53846;51.984;5.890;2022-08-20T12:55:21;27.60;39.80
66934;DHT22;53846;51.984;5.890;2022-08-20T12:57:51;27.50;40.50
66934;DHT22;53846;51.984;5.890;2022-08-20T13:00:26;27.30;40.80
66934;DHT22;53846;51.984;5.890;2022-08-20T13:02:57;27.50;40.80
66934;DHT22;53846;51.984;5.890;2022-08-20T13:05:27;27.40;41.60
66934;DHT22;53846;51.984;5.890;2022-08-20T13:07:57;27.40;41.20
66934;DHT22;53846;51.984;5.890;2022-08-20T13:10:28;27.50;41.80
66934;DHT22;53846;51.984;5.890;2022-08-20T13:12:58;27.70;42.20
66934;DHT22;53846;51.984;5.890;2022-08-20T13:15:31;27.90;41.10
66934;DHT22;53846;51.984;5.890;2022-08-20T13:18:01;28.00;41.50
66934;DHT22;53846;51.984;5.890;2022-08-20T13:20:31;28.30;40.30
66934;DHT22;53846;51.984;5.890;2022-08-20T13:23:00;28.70;40.30
66934;DHT22;53846;51.984;5.890;2022-08-20T13:25:29;28.60;39.20
66934;DHT22;53846;51.984;5.890;2022-08-20T13:28:01;28.80;38.40
66934;DHT22;53846;51.984;5.890;2022-08-20T13:30:34;29.00;39.50
66934;DHT22;53846;51.984;5.890;2022-08-20T13:33:06;29.10;38.70
66934;DHT22;53846;51.984;5.890;2022-08-20T13:35:35;28.70;38.10
66934;DHT22;53846;51.984;5.890;2022-08-20T13:38:04;28.90;38.60
66934;DHT22;53846;51.984;5.890;2022-08-20T13:40:33;28.80;39.00
66934;DHT22;53846;51.984;5.890;2022-08-20T13:43:02;28.50;38.80
66934;DHT22;53846;51.984;5.890;2022-08-20T13:45:34;28.50;38.90
66934;DHT22;53846;51.984;5.890;2022-08-20T13:48:04;28.40;37.90
66934;DHT22;53846;51.984;5.890;2022-08-20T13:50:34;28.50;39.00
66934;DHT22;53846;51.984;5.890;2022-08-20T13:53:03;28.70;37.50
66934;DHT22;53846;51.984;5.890;2022-08-20T13:55:33;28.40;37.80
66934;DHT22;53846;51.984;5.890;2022-08-20T13:58:04;28.30;37.80
66934;DHT22;53846;51.984;5.890;2022-08-20T14:00:35;28.30;39.60
66934;DHT22;53846;51.984;5.890;2022-08-20T14:03:05;28.20;38.80
66934;DHT22;53846;51.984;5.890;2022-08-20T14:05:35;28.50;38.40
66934;DHT22;53846;51.984;5.890;2022-08-20T14:08:06;28.60;38.80
66934;DHT22;53846;51.984;5.890;2022-08-20T14:10:36;28.70;39.90
66934;DHT22;53846;51.984;5.890;2022-08-20T14:13:05;28.30;38.90
66934;DHT22;53846;51.984;5.890;2022-08-20T14:15:37;28.40;39.70
66934;DHT22;53846;51.984;5.890;2022-08-20T14:18:07;28.20;39.70
66934;DHT22;53846;51.984;5.890;2022-08-20T14:20:36;28.20;39.50
66934;DHT22;53846;51.984;5.890;2022-08-20T14:23:05;28.30;40.20
66934;DHT22;53846;51.984;5.890;2022-08-20T14:25:34;28.00;39.40
66934;DHT22;53846;51.984;5.890;2022-08-20T14:28:11;28.10;40.30
66934;DHT22;53846;51.984;5.890;2022-08-20T14:30:43;28.00;41.00
66934;DHT22;53846;51.984;5.890;2022-08-20T14:33:12;27.90;41.40
66934;DHT22;53846;51.984;5.890;2022-08-20T14:35:41;28.20;39.80
66934;DHT22;53846;51.984;5.890;2022-08-20T14:38:10;28.00;39.30
66934;DHT22;53846;51.984;5.890;2022-08-20T14:40:39;28.00;40.60
66934;DHT22;53846;51.984;5.890;2022-08-20T14:43:08;28.00;38.90
66934;DHT22;53846;51.984;5.890;2022-08-20T14:45:37;27.90;40.30
66934;DHT22;53846;51.984;5.890;2022-08-20T14:48:09;28.00;41.30
66934;DHT22;53846;51.984;5.890;2022-08-20T14:50:40;27.70;40.00
66934;DHT22;53846;51.984;5.890;2022-08-20T14:53:09;27.50;40.60
66934;DHT22;53846;51.984;5.890;2022-08-20T14:55:38;27.60;41.10
66934;DHT22;53846;51.984;5.890;2022-08-20T14:58:08;27.60;41.50
66934;DHT22;53846;51.984;5.890;2022-08-20T15:00:38;27.60;41.60
66934;DHT22;53846;51.984;5.890;2022-08-20T15:03:10;27.50;41.60
66934;DHT22;53846;51.984;5.890;2022-08-20T15:05:39;27.60;41.80
66934;DHT22;53846;51.984;5.890;2022-08-20T15:08:08;27.50;42.60
66934;DHT22;53846;51.984;5.890;2022-08-20T15:10:38;27.70;42.40
66934;DHT22;53846;51.984;5.890;2022-08-20T15:13:07;27.70;43.40
66934;DHT22;53846;51.984;5.890;2022-08-20T15:15:36;27.80;42.10
66934;DHT22;53846;51.984;5.890;2022-08-20T15:18:05;27.70;41.40
66934;DHT22;53846;51.984;5.890;2022-08-20T15:20:37;27.70;41.60
66934;DHT22;53846;51.984;5.890;2022-08-20T15:23:06;27.80;41.50
66934;DHT22;53846;51.984;5.890;2022-08-20T15:25:36;27.60;41.60
66934;DHT22;53846;51.984;5.890;2022-08-20T15:28:07;27.60;41.20
66934;DHT22;53846;51.984;5.890;2022-08-20T15:30:38;27.80;42.60
66934;DHT22;53846;51.984;5.890;2022-08-20T15:33:08;27.40;43.30
66934;DHT22;53846;51.984;5.890;2022-08-20T15:35:40;27.30;43.00
66934;DHT22;53846;51.984;5.890;2022-08-20T15:38:09;27.20;42.00
66934;DHT22;53846;51.984;5.890;2022-08-20T15:40:38;27.10;42.00
66934;DHT22;53846;51.984;5.890;2022-08-20T15:43:07;27.00;42.70
66934;DHT22;53846;51.984;5.890;2022-08-20T15:45:36;26.90;43.00
66934;DHT22;53846;51.984;5.890;2022-08-20T15:48:09;26.60;44.10
66934;DHT22;53846;51.984;5.890;2022-08-20T15:50:57;26.80;44.30